Time;durP1;ratioP1;P1;durP2;ratioP2;P2;SDS_P1;SDS_P2;PMS_P1;PMS_P2;Temp;Humidity;BMP_temperature;BMP_pressure;BME280_temperature;BME280_humidity;BME280_pressure;Samples;Min_cycle;Max_cycle;Signal;HPM_P1;HPM_P2
2023/03/26 00:00:53;;;;;;;1.13;0.60;;;;;;;;;;5007305;28;20018;-51
2023/03/26 00:03:19;;;;;;;2.53;0.68;;;;;;;;;;5007960;28;20056;-55
2023/03/26 00:05:48;;;;;;;3.10;0.77;;;;;;;;;;5021691;28;20220;-55
2023/03/26 00:08:14;;;;;;;3.45;0.85;;;;;;;;;;5008353;28;20092;-51
2023/03/26 00:10:40;;;;;;;5.22;1.25;;;;;;;;;;5007680;28;20385;-50
2023/03/26 00:13:06;;;;;;;2.92;0.73;;;;;;;;;;5007592;28;20113;-52
2023/03/26 00:15:32;;;;;;;1.25;0.57;;;;;;;;;;5007585;28;20431;-56
2023/03/26 00:17:59;;;;;;;3.17;0.95;;;;;;;;;;5007418;28;20052;-57
2023/03/26 00:20:26;;;;;;;2.67;0.82;;;;;;;;;;5007538;28;20430;-54
2023/03/26 00:22:52;;;;;;;1.65;0.57;;;;;;;;;;5007373;28;20010;-54
2023/03/26 00:25:19;;;;;;;2.30;0.73;;;;;;;;;;5007271;28;20026;-55
2023/03/26 00:27:44;;;;;;;6.43;1.25;;;;;;;;;;5007367;28;20026;-53
2023/03/26 00:30:10;;;;;;;1.35;0.73;;;;;;;;;;5006888;28;20708;-55
2023/03/26 00:32:35;;;;;;;4.10;1.00;;;;;;;;;;5007273;28;20050;-57
2023/03/26 00:35:02;;;;;;;3.45;0.88;;;;;;;;;;5007595;28;20049;-51
2023/03/26 00:37:27;;;;;;;1.88;0.90;;;;;;;;;;5007141;28;20073;-52
2023/03/26 00:39:53;;;;;;;3.10;1.20;;;;;;;;;;5007127;28;20049;-55
2023/03/26 00:42:19;;;;;;;4.07;1.25;;;;;;;;;;5007208;28;20029;-53
2023/03/26 00:44:44;;;;;;;5.28;1.38;;;;;;;;;;5007119;28;20022;-54
2023/03/26 00:47:09;;;;;;;0.95;0.68;;;;;;;;;;5007195;28;20022;-56
2023/03/26 00:49:35;;;;;;;1.58;0.70;;;;;;;;;;5006845;28;20038;-56
2023/03/26 00:52:01;;;;;;;3.53;1.10;;;;;;;;;;5007201;28;20029;-53
2023/03/26 00:54:27;;;;;;;3.47;1.13;;;;;;;;;;5005565;28;20105;-54
2023/03/26 00:56:54;;;;;;;2.15;0.93;;;;;;;;;;5004460;28;20435;-53
2023/03/26 00:59:23;;;;;;;2.10;1.00;;;;;;;;;;5007030;28;20387;-53
2023/03/26 01:01:48;;;;;;;5.20;1.25;;;;;;;;;;5007060;28;20113;-51
2023/03/26 01:04:19;;;;;;;5.28;0.90;;;;;;;;;;5006702;28;20129;-54
2023/03/26 01:06:45;;;;;;;3.50;1.10;;;;;;;;;;5006937;28;20276;-49
2023/03/26 01:09:15;;;;;;;1.08;0.88;;;;;;;;;;5006544;28;20024;-55
2023/03/26 01:11:41;;;;;;;2.47;1.00;;;;;;;;;;5005967;28;20026;-54
2023/03/26 01:14:11;;;;;;;3.65;1.05;;;;;;;;;;5006533;28;20040;-52
2023/03/26 01:16:38;;;;;;;4.80;1.20;;;;;;;;;;5006443;28;20018;-55
2023/03/26 01:19:11;;;;;;;3.67;1.02;;;;;;;;;;5006469;28;20364;-52
2023/03/26 01:21:38;;;;;;;3.80;0.95;;;;;;;;;;5006422;28;20037;-53
2023/03/26 01:24:05;;;;;;;3.95;1.08;;;;;;;;;;5006216;28;20022;-53
2023/03/26 01:26:30;;;;;;;2.83;0.88;;;;;;;;;;5006273;28;20577;-56
2023/03/26 01:28:57;;;;;;;2.97;1.10;;;;;;;;;;5006019;28;20104;-55
2023/03/26 01:31:24;;;;;;;3.03;1.10;;;;;;;;;;5006017;28;20025;-55
2023/03/26 01:33:56;;;;;;;6.22;1.23;;;;;;;;;;5006270;28;20084;-54
2023/03/26 01:36:32;;;;;;;3.65;1.15;;;;;;;;;;5006461;28;20021;-54
2023/03/26 01:39:08;;;;;;;3.22;1.25;;;;;;;;;;5006206;28;20034;-55
2023/03/26 01:41:36;;;;;;;3.13;0.82;;;;;;;;;;5005930;28;20383;-56
2023/03/26 01:44:01;;;;;;;1.75;1.00;;;;;;;;;;5006138;28;20464;-55
2023/03/26 01:46:27;;;;;;;1.98;0.75;;;;;;;;;;5006042;28;20033;-55
2023/03/26 01:48:54;;;;;;;2.67;1.10;;;;;;;;;;5005682;28;20395;-52
2023/03/26 01:51:34;;;;;;;5.07;1.27;;;;;;;;;;5005867;28;20014;-51
2023/03/26 01:54:03;;;;;;;3.58;1.45;;;;;;;;;;5006179;28;20467;-52
2023/03/26 01:56:43;;;;;;;2.45;1.10;;;;;;;;;;5005782;28;20383;-54
2023/03/26 01:59:08;;;;;;;3.75;1.27;;;;;;;;;;5005634;28;20034;-50
2023/03/26 02:01:46;;;;;;;5.00;1.60;;;;;;;;;;5005886;28;20029;-56
2023/03/26 02:04:30;;;;;;;2.30;0.95;;;;;;;;;;5005740;28;20379;-55
2023/03/26 02:07:04;;;;;;;3.70;1.38;;;;;;;;;;5005632;28;20377;-52
2023/03/26 02:09:31;;;;;;;1.80;1.15;;;;;;;;;;5005758;28;20052;-55
2023/03/26 02:11:57;;;;;;;2.78;1.13;;;;;;;;;;5005848;28;20026;-55
2023/03/26 02:14:23;;;;;;;1.88;1.10;;;;;;;;;;5005593;28;20026;-54
2023/03/26 02:16:50;;;;;;;1.15;0.80;;;;;;;;;;5005315;28;20460;-56
2023/03/26 02:19:20;;;;;;;5.40;1.58;;;;;;;;;;5005671;28;20557;-50
2023/03/26 02:21:48;;;;;;;7.75;1.15;;;;;;;;;;5005762;28;20036;-55
2023/03/26 02:24:13;;;;;;;3.80;1.20;;;;;;;;;;5005804;28;20101;-55
2023/03/26 02:26:38;;;;;;;4.88;1.35;;;;;;;;;;5019478;28;20623;-53
2023/03/26 02:29:04;;;;;;;6.10;1.35;;;;;;;;;;5005376;28;20040;-54
2023/03/26 02:31:29;;;;;;;5.47;1.30;;;;;;;;;;5005385;28;20032;-49
2023/03/26 02:33:55;;;;;;;1.27;0.93;;;;;;;;;;5003001;28;20439;-53
2023/03/26 02:36:23;;;;;;;3.45;1.33;;;;;;;;;;5004148;28;20029;-55
2023/03/26 02:38:49;;;;;;;2.10;1.10;;;;;;;;;;5005264;28;20022;-55
2023/03/26 02:41:15;;;;;;;5.95;1.92;;;;;;;;;;5005483;28;20036;-55
2023/03/26 02:43:40;;;;;;;6.18;1.65;;;;;;;;;;5005484;28;20108;-53
2023/03/26 02:46:05;;;;;;;5.22;1.50;;;;;;;;;;5005461;28;20479;-56
2023/03/26 02:48:33;;;;;;;5.28;1.50;;;;;;;;;;5005205;28;20465;-56
2023/03/26 02:50:58;;;;;;;3.22;1.63;;;;;;;;;;5004235;28;20022;-57
2023/03/26 02:53:30;;;;;;;4.55;1.55;;;;;;;;;;5005554;28;20056;-54
2023/03/26 02:55:56;;;;;;;4.43;1.38;;;;;;;;;;5005712;28;20053;-53
2023/03/26 02:58:24;;;;;;;5.57;1.50;;;;;;;;;;5005494;28;20112;-55
2023/03/26 03:00:53;;;;;;;1.92;1.38;;;;;;;;;;5005049;28;20058;-51
2023/03/26 03:03:23;;;;;;;7.13;1.50;;;;;;;;;;5005114;28;20017;-54
2023/03/26 03:05:48;;;;;;;;;;;;;;;;;;5005525;28;20065;-54
2023/03/26 03:08:13;;;;;;;5.20;1.20;;;;;;;;;;5005428;28;20299;-52
2023/03/26 03:10:38;;;;;;;4.63;1.63;;;;;;;;;;5003545;28;20092;-52
2023/03/26 03:13:06;;;;;;;5.03;1.80;;;;;;;;;;5005414;28;20468;-54
2023/03/26 03:15:31;;;;;;;2.95;1.38;;;;;;;;;;5004728;28;20028;-54
2023/03/26 03:17:57;;;;;;;6.18;1.73;;;;;;;;;;5004937;28;20026;-53
2023/03/26 03:20:22;;;;;;;4.80;1.63;;;;;;;;;;5004758;28;20391;-50
2023/03/26 03:22:47;;;;;;;6.05;1.10;;;;;;;;;;5004865;28;20320;-57
2023/03/26 03:25:16;;;;;;;4.53;1.40;;;;;;;;;;5005142;28;20097;-56
2023/03/26 03:27:42;;;;;;;4.30;1.35;;;;;;;;;;5005238;28;20030;-52
2023/03/26 03:30:08;;;;;;;2.88;1.30;;;;;;;;;;5005103;28;20119;-55
2023/03/26 03:32:33;;;;;;;5.00;1.40;;;;;;;;;;5004745;28;20143;-52
2023/03/26 03:34:58;;;;;;;3.10;1.52;;;;;;;;;;5006450;28;20121;-56
2023/03/26 03:37:25;;;;;;;3.95;1.27;;;;;;;;;;5008734;28;20041;-55
2023/03/26 03:39:50;;;;;;;4.90;1.23;;;;;;;;;;5008655;28;20053;-56
2023/03/26 03:42:15;;;;;;;4.40;1.50;;;;;;;;;;5008710;28;20495;-56
2023/03/26 03:44:41;;;;;;;3.63;1.40;;;;;;;;;;5008444;28;20452;-54
2023/03/26 03:47:06;;;;;;;3.85;1.63;;;;;;;;;;5008310;28;20022;-55
2023/03/26 03:49:31;;;;;;;9.45;2.60;;;;;;;;;;4989953;28;20041;-54
2023/03/26 03:51:57;;;;;;;10.02;3.15;;;;;;;;;;5008688;28;20116;-54
2023/03/26 03:54:23;;;;;;;16.42;3.85;;;;;;;;;;5008522;28;20026;-54
2023/03/26 03:56:48;;;;;;;9.07;2.65;;;;;;;;;;5008535;28;20028;-54
2023/03/26 03:59:14;;;;;;;9.52;2.67;;;;;;;;;;5007926;28;20495;-53
2023/03/26 04:01:42;;;;;;;8.75;2.70;;;;;;;;;;5008058;28;20013;-51
2023/03/26 04:04:07;;;;;;;6.68;2.63;;;;;;;;;;5006929;28;20456;-50
2023/03/26 04:06:32;;;;;;;9.43;3.03;;;;;;;;;;5008129;28;20053;-55
2023/03/26 04:08:58;;;;;;;8.95;3.28;;;;;;;;;;5007949;28;20025;-52
2023/03/26 04:11:23;;;;;;;7.07;3.10;;;;;;;;;;5007539;28;20026;-53
2023/03/26 04:13:48;;;;;;;12.25;3.72;;;;;;;;;;5007685;28;20448;-56
2023/03/26 04:16:14;;;;;;;11.82;3.60;;;;;;;;;;5006626;28;20108;-55
2023/03/26 04:18:39;;;;;;;6.00;2.90;;;;;;;;;;5007838;28;20084;-53
2023/03/26 04:21:06;;;;;;;6.70;2.70;;;;;;;;;;5007712;28;20033;-53
2023/03/26 04:23:33;;;;;;;8.85;3.08;;;;;;;;;;5007913;28;20333;-54
2023/03/26 04:26:02;;;;;;;12.23;3.65;;;;;;;;;;5007882;28;20334;-52
2023/03/26 04:28:41;;;;;;;11.23;3.38;;;;;;;;;;5007675;28;20030;-52
2023/03/26 04:31:10;;;;;;;9.30;3.30;;;;;;;;;;5007502;28;20056;-55
2023/03/26 04:33:37;;;;;;;7.75;2.50;;;;;;;;;;5007395;28;20054;-54
2023/03/26 04:36:04;;;;;;;8.25;3.28;;;;;;;;;;5007438;28;20399;-53
2023/03/26 04:38:32;;;;;;;6.50;2.60;;;;;;;;;;5007293;28;20029;-51
2023/03/26 04:40:58;;;;;;;5.53;2.00;;;;;;;;;;5007665;28;20514;-52
2023/03/26 04:43:25;;;;;;;6.07;2.60;;;;;;;;;;5007438;28;20379;-51
2023/03/26 04:45:51;;;;;;;10.10;2.90;;;;;;;;;;5006575;28;20367;-55
2023/03/26 04:48:17;;;;;;;7.28;2.75;;;;;;;;;;5007609;28;20026;-55
2023/03/26 04:50:44;;;;;;;7.30;2.35;;;;;;;;;;5007645;28;20064;-52
2023/03/26 04:53:14;;;;;;;7.22;2.22;;;;;;;;;;5007017;28;20068;-53
2023/03/26 04:55:45;;;;;;;7.50;2.38;;;;;;;;;;5007036;28;20570;-51
2023/03/26 04:58:12;;;;;;;7.95;2.67;;;;;;;;;;4987810;28;20072;-55
2023/03/26 05:00:38;;;;;;;10.18;2.63;;;;;;;;;;5004142;28;20483;-51
2023/03/26 05:03:03;;;;;;;6.45;2.53;;;;;;;;;;5004469;28;20034;-52
2023/03/26 05:05:29;;;;;;;8.40;2.92;;;;;;;;;;5004527;28;20100;-51
2023/03/26 05:07:55;;;;;;;11.18;3.05;;;;;;;;;;5004751;28;20115;-51
2023/03/26 05:10:20;;;;;;;5.82;2.20;;;;;;;;;;5004157;28;20098;-54
2023/03/26 05:12:46;;;;;;;6.65;2.33;;;;;;;;;;5004630;28;20753;-49
2023/03/26 05:15:12;;;;;;;9.43;2.10;;;;;;;;;;5004288;28;20026;-49
2023/03/26 05:17:40;;;;;;;6.93;2.22;;;;;;;;;;5004419;28;20053;-52
2023/03/26 05:20:07;;;;;;;7.55;2.65;;;;;;;;;;5004204;28;20041;-51
2023/03/26 05:22:32;;;;;;;9.25;3.15;;;;;;;;;;5004009;28;20025;-52
2023/03/26 05:24:57;;;;;;;7.25;2.60;;;;;;;;;;5004169;28;20395;-53
2023/03/26 05:27:22;;;;;;;6.88;2.65;;;;;;;;;;5004196;28;20437;-52
2023/03/26 05:29:48;;;;;;;9.60;2.95;;;;;;;;;;5000307;28;20042;-52
2023/03/26 05:32:13;;;;;;;10.45;2.75;;;;;;;;;;5007061;28;20475;-51
2023/03/26 05:34:39;;;;;;;10.25;2.60;;;;;;;;;;5006896;28;20797;-54
2023/03/26 05:37:05;;;;;;;10.52;3.05;;;;;;;;;;5006934;28;20068;-51
2023/03/26 05:39:31;;;;;;;11.55;3.45;;;;;;;;;;5020091;28;20030;-56
2023/03/26 05:41:56;;;;;;;12.70;3.25;;;;;;;;;;5006450;28;20033;-51
2023/03/26 05:44:21;;;;;;;5.97;2.33;;;;;;;;;;5006194;28;20033;-53
2023/03/26 05:46:47;;;;;;;7.10;2.45;;;;;;;;;;5006208;28;20361;-50
2023/03/26 05:49:12;;;;;;;8.57;2.17;;;;;;;;;;5006503;28;20034;-51
2023/03/26 05:51:37;;;;;;;8.68;2.63;;;;;;;;;;5006350;28;20097;-53
2023/03/26 05:54:03;;;;;;;10.80;2.50;;;;;;;;;;5006338;28;20057;-51
2023/03/26 05:56:28;;;;;;;7.75;2.40;;;;;;;;;;5006265;28;20492;-52
2023/03/26 05:58:54;;;;;;;7.93;2.60;;;;;;;;;;5005845;28;20021;-55
2023/03/26 06:01:19;;;;;;;10.18;3.33;;;;;;;;;;5006224;28;20112;-56
2023/03/26 06:03:45;;;;;;;6.85;2.53;;;;;;;;;;5006431;28;20441;-54
2023/03/26 06:06:14;;;;;;;8.07;2.42;;;;;;;;;;5006135;28;20025;-53
2023/03/26 06:08:45;;;;;;;7.95;2.10;;;;;;;;;;5006232;28;20454;-54
2023/03/26 06:11:11;;;;;;;4.97;1.98;;;;;;;;;;5006069;28;20034;-53
2023/03/26 06:13:37;;;;;;;10.25;2.17;;;;;;;;;;5006027;28;20018;-52
2023/03/26 06:16:02;;;;;;;3.80;1.77;;;;;;;;;;5006060;28;20057;-52
2023/03/26 06:18:27;;;;;;;5.60;1.98;;;;;;;;;;5006042;28;20025;-54
2023/03/26 06:20:53;;;;;;;4.20;1.88;;;;;;;;;;5019873;28;20482;-56
2023/03/26 06:23:18;;;;;;;8.68;2.75;;;;;;;;;;5005912;28;20028;-51
2023/03/26 06:25:44;;;;;;;4.25;1.88;;;;;;;;;;5006077;28;20018;-55
2023/03/26 06:28:10;;;;;;;7.95;2.65;;;;;;;;;;5005767;28;20029;-56
2023/03/26 06:30:36;;;;;;;7.45;2.88;;;;;;;;;;5005640;28;20037;-55
2023/03/26 06:33:01;;;;;;;6.10;2.10;;;;;;;;;;5005844;28;20041;-52
2023/03/26 06:35:28;;;;;;;4.70;2.20;;;;;;;;;;5005581;28;20439;-49
2023/03/26 06:37:54;;;;;;;5.50;1.75;;;;;;;;;;5006062;28;20022;-55
2023/03/26 06:40:19;;;;;;;8.27;2.60;;;;;;;;;;5005557;28;20095;-54
2023/03/26 06:42:44;;;;;;;5.18;2.17;;;;;;;;;;5005881;28;20014;-52
2023/03/26 06:45:10;;;;;;;12.63;3.30;;;;;;;;;;5005371;28;20109;-52
2023/03/26 06:47:35;;;;;;;7.25;2.65;;;;;;;;;;5005208;28;20021;-54
2023/03/26 06:50:00;;;;;;;5.30;2.30;;;;;;;;;;5005321;28;20105;-49
2023/03/26 06:52:25;;;;;;;6.75;2.28;;;;;;;;;;5005444;28;20068;-52
2023/03/26 06:54:51;;;;;;;5.65;1.80;;;;;;;;;;5005566;28;20411;-51
2023/03/26 06:57:16;;;;;;;3.55;1.90;;;;;;;;;;5005371;28;20021;-51
2023/03/26 06:59:41;;;;;;;7.10;1.92;;;;;;;;;;5002769;28;20030;-57
2023/03/26 07:02:09;;;;;;;4.50;1.90;;;;;;;;;;5005227;28;20038;-53
2023/03/26 07:04:34;;;;;;;4.13;2.05;;;;;;;;;;5005206;28;20026;-49
2023/03/26 07:07:00;;;;;;;4.90;2.10;;;;;;;;;;5005077;28;20122;-54
2023/03/26 07:09:29;;;;;;;7.03;2.35;;;;;;;;;;5005905;28;20037;-52
2023/03/26 07:11:54;;;;;;;3.38;1.95;;;;;;;;;;5009347;28;20026;-51
2023/03/26 07:14:19;;;;;;;6.28;2.25;;;;;;;;;;5009411;28;20033;-49
2023/03/26 07:16:45;;;;;;;6.00;1.98;;;;;;;;;;5009550;28;20546;-52
2023/03/26 07:19:10;;;;;;;6.15;3.08;;;;;;;;;;5008694;28;20546;-51
2023/03/26 07:21:35;;;;;;;5.95;2.38;;;;;;;;;;5008893;28;20038;-48
2023/03/26 07:24:01;;;;;;;3.97;2.38;;;;;;;;;;5008824;28;20407;-50
2023/03/26 07:26:35;;;;;;;2.75;1.80;;;;;;;;;;5007760;28;20029;-50
2023/03/26 07:29:07;;;;;;;4.90;2.58;;;;;;;;;;5009072;28;20022;-56
2023/03/26 07:31:35;;;;;;;6.22;2.42;;;;;;;;;;5008642;28;20037;-51
2023/03/26 07:34:02;;;;;;;5.90;2.17;;;;;;;;;;5008910;28;20049;-51
2023/03/26 07:36:28;;;;;;;4.50;2.28;;;;;;;;;;5008935;28;20026;-55
2023/03/26 07:39:05;;;;;;;3.58;2.30;;;;;;;;;;5008781;28;20460;-51
2023/03/26 07:41:39;;;;;;;11.05;5.00;;;;;;;;;;5007317;28;20025;-54
2023/03/26 07:44:23;;;;;;;7.13;4.30;;;;;;;;;;5008456;28;20368;-53
2023/03/26 07:46:52;;;;;;;9.38;4.47;;;;;;;;;;5008576;28;20080;-50
2023/03/26 07:49:19;;;;;;;8.50;4.88;;;;;;;;;;5008220;28;20117;-50
2023/03/26 07:51:44;;;;;;;9.73;5.93;;;;;;;;;;5008482;28;20030;-48
2023/03/26 07:54:10;;;;;;;12.48;5.53;;;;;;;;;;5007149;28;20149;-53
2023/03/26 07:56:45;;;;;;;11.95;6.30;;;;;;;;;;5008022;28;20029;-50
2023/03/26 07:59:16;;;;;;;4.38;2.30;;;;;;;;;;5008269;28;20029;-50
2023/03/26 08:01:41;;;;;;;5.90;3.70;;;;;;;;;;5008263;28;20030;-49
2023/03/26 08:04:06;;;;;;;24.70;12.60;;;;;;;;;;5005958;28;20507;-49
2023/03/26 08:06:36;;;;;;;5.90;3.17;;;;;;;;;;5008145;28;20256;-49
2023/03/26 08:09:13;;;;;;;5.13;2.45;;;;;;;;;;5008075;28;21097;-50
2023/03/26 08:12:03;;;;;;;5.63;2.30;;;;;;;;;;5008204;28;20030;-55
2023/03/26 08:14:51;;;;;;;5.32;2.63;;;;;;;;;;5007957;28;20104;-52
2023/03/26 08:17:25;;;;;;;5.47;2.13;;;;;;;;;;5007790;28;20030;-49
2023/03/26 08:19:50;;;;;;;3.90;2.42;;;;;;;;;;5007454;28;20049;-47
2023/03/26 08:22:25;;;;;;;6.35;2.78;;;;;;;;;;5005121;28;20100;-55
2023/03/26 08:24:52;;;;;;;4.20;2.13;;;;;;;;;;5007765;28;20018;-51
2023/03/26 08:27:26;;;;;;;10.40;3.70;;;;;;;;;;5007879;28;20319;-55
2023/03/26 08:30:12;;;;;;;4.70;2.95;;;;;;;;;;5007489;28;20021;-51
2023/03/26 08:32:37;;;;;;;5.60;2.10;;;;;;;;;;5007132;28;20057;-50
2023/03/26 08:35:03;;;;;;;4.07;2.10;;;;;;;;;;5007681;28;20378;-49
2023/03/26 08:37:29;;;;;;;10.10;4.40;;;;;;;;;;5007532;28;20056;-50
2023/03/26 08:39:54;;;;;;;6.03;3.72;;;;;;;;;;5007473;28;20030;-51
2023/03/26 08:42:38;;;;;;;2.53;1.70;;;;;;;;;;5007245;28;20030;-54
2023/03/26 08:45:30;;;;;;;4.28;2.53;;;;;;;;;;5007076;28;20072;-49
2023/03/26 08:48:13;;;;;;;4.68;2.30;;;;;;;;;;5004648;28;20034;-47
2023/03/26 08:50:42;;;;;;;6.93;2.55;;;;;;;;;;5004252;28;20479;-46
2023/03/26 08:53:26;;;;;;;3.53;1.77;;;;;;;;;;5004441;28;20041;-55
2023/03/26 08:55:51;;;;;;;5.88;2.00;;;;;;;;;;5004510;28;20018;-50
2023/03/26 08:58:25;;;;;;;2.90;1.50;;;;;;;;;;5004356;28;20510;-48
2023/03/26 09:01:05;;;;;;;2.17;1.02;;;;;;;;;;5004058;28;20501;-55
2023/03/26 09:03:49;;;;;;;3.72;1.13;;;;;;;;;;5004512;28;20146;-51
2023/03/26 09:06:20;;;;;;;2.90;1.40;;;;;;;;;;5004191;28;20118;-55
2023/03/26 09:08:51;;;;;;;3.75;1.38;;;;;;;;;;5004310;28;20041;-48
2023/03/26 09:11:28;;;;;;;3.72;1.85;;;;;;;;;;5003822;28;20034;-52
2023/03/26 09:13:53;;;;;;;5.35;1.42;;;;;;;;;;5004234;28;20021;-54
2023/03/26 09:16:44;;;;;;;4.95;2.00;;;;;;;;;;5004265;28;20032;-52
2023/03/26 09:19:21;;;;;;;1.73;1.02;;;;;;;;;;5001016;28;20038;-50
2023/03/26 09:22:02;;;;;;;4.20;1.55;;;;;;;;;;5003438;28;20088;-54
2023/03/26 09:24:46;;;;;;;7.47;3.17;;;;;;;;;;5004769;28;20030;-51
2023/03/26 09:27:26;;;;;;;3.90;1.45;;;;;;;;;;5006335;28;20022;-51
2023/03/26 09:30:10;;;;;;;3.05;1.38;;;;;;;;;;5006662;28;20026;-51
2023/03/26 09:32:35;;;;;;;4.90;1.60;;;;;;;;;;5005495;28;20054;-55
2023/03/26 09:35:13;;;;;;;1.43;1.20;;;;;;;;;;5006376;28;20078;-52
2023/03/26 09:37:44;;;;;;;5.10;1.08;;;;;;;;;;5006284;28;20338;-49
2023/03/26 09:40:21;;;;;;;2.28;1.20;;;;;;;;;;5006462;28;20059;-50
2023/03/26 09:42:54;;;;;;;2.20;1.10;;;;;;;;;;5006188;28;20021;-49
2023/03/26 09:45:38;;;;;;;7.13;3.47;;;;;;;;;;5006218;28;20041;-56
2023/03/26 09:48:13;;;;;;;15.77;4.65;;;;;;;;;;5006075;28;20022;-51
2023/03/26 09:50:57;;;;;;;3.60;1.40;;;;;;;;;;5005797;28;20080;-51
2023/03/26 09:53:37;;;;;;;2.45;1.02;;;;;;;;;;5005794;28;20033;-55
2023/03/26 09:56:11;;;;;;;3.10;1.00;;;;;;;;;;5006025;28;20514;-50
2023/03/26 09:59:05;;;;;;;2.38;1.00;;;;;;;;;;5003382;28;20041;-52
2023/03/26 10:01:50;;;;;;;2.15;1.00;;;;;;;;;;5005964;28;20561;-55
2023/03/26 10:04:15;;;;;;;1.88;0.93;;;;;;;;;;5006009;28;20021;-48
2023/03/26 10:07:02;;;;;;;0.93;0.80;;;;;;;;;;5005840;28;20483;-57
2023/03/26 10:09:28;;;;;;;3.17;0.90;;;;;;;;;;5005625;28;20111;-49
2023/03/26 10:11:59;;;;;;;1.73;0.90;;;;;;;;;;5005942;28;20526;-54
2023/03/26 10:14:39;;;;;;;1.20;0.85;;;;;;;;;;5005843;28;20235;-53
2023/03/26 10:17:11;;;;;;;9.27;4.68;;;;;;;;;;5006097;28;20344;-52
2023/03/26 10:19:55;;;;;;;1.73;1.30;;;;;;;;;;5005276;28;20053;-53
2023/03/26 10:22:20;;;;;;;7.22;2.70;;;;;;;;;;5005471;28;20030;-51
2023/03/26 10:24:48;;;;;;;9.40;4.50;;;;;;;;;;5005367;28;20467;-49
2023/03/26 10:27:40;;;;;;;6.90;2.70;;;;;;;;;;5005653;28;20025;-53
2023/03/26 10:30:09;;;;;;;3.25;1.45;;;;;;;;;;4986114;28;20124;-55
2023/03/26 10:32:52;;;;;;;6.13;2.60;;;;;;;;;;5002387;28;20144;-52
2023/03/26 10:35:36;;;;;;;1.90;1.20;;;;;;;;;;5002477;28;20517;-50
2023/03/26 10:38:19;;;;;;;1.75;1.10;;;;;;;;;;5002597;28;20117;-51
2023/03/26 10:41:03;;;;;;;2.90;0.95;;;;;;;;;;5002426;28;20571;-52
2023/03/26 10:43:35;;;;;;;2.03;1.10;;;;;;;;;;5002295;28;20052;-50
2023/03/26 10:46:00;;;;;;;3.55;0.70;;;;;;;;;;5002564;28;20022;-50
2023/03/26 10:48:25;;;;;;;0.73;0.60;;;;;;;;;;5002588;28;20033;-48
2023/03/26 10:50:51;;;;;;;1.50;0.70;;;;;;;;;;5002663;28;20246;-51
2023/03/26 10:53:36;;;;;;;1.75;0.90;;;;;;;;;;5002587;28;20208;-50
2023/03/26 10:56:20;;;;;;;2.20;0.50;;;;;;;;;;5002154;28;20483;-52
2023/03/26 10:58:46;;;;;;;0.52;0.45;;;;;;;;;;5002185;28;20415;-54
2023/03/26 11:01:21;;;;;;;5.13;2.67;;;;;;;;;;5002389;28;20034;-57
2023/03/26 11:03:53;;;;;;;1.45;0.80;;;;;;;;;;4986027;28;20157;-55
2023/03/26 11:06:22;;;;;;;1.77;0.80;;;;;;;;;;4987860;28;20034;-52
2023/03/26 11:08:47;;;;;;;5.20;1.20;;;;;;;;;;5004867;28;20018;-50
2023/03/26 11:11:13;;;;;;;8.17;3.10;;;;;;;;;;5005189;28;20026;-51
2023/03/26 11:13:47;;;;;;;5.63;1.13;;;;;;;;;;5005014;28;20247;-47
2023/03/26 11:16:15;;;;;;;3.70;2.05;;;;;;;;;;5005167;28;20248;-50
2023/03/26 11:18:55;;;;;;;5.03;2.13;;;;;;;;;;5004820;28;20179;-52
2023/03/26 11:21:24;;;;;;;5.13;1.30;;;;;;;;;;5004570;28;20104;-50
2023/03/26 11:23:52;;;;;;;6.47;1.37;;;;;;;;;;5005099;28;20055;-48
2023/03/26 11:26:25;;;;;;;3.10;1.55;;;;;;;;;;5004934;28;20014;-51
2023/03/26 11:29:11;;;;;;;2.22;1.00;;;;;;;;;;5004645;28;20144;-52
2023/03/26 11:31:40;;;;;;;1.95;0.98;;;;;;;;;;5004731;28;20041;-52
2023/03/26 11:34:10;;;;;;;1.17;0.60;;;;;;;;;;5004875;28;20058;-47
2023/03/26 11:36:37;;;;;;;2.63;1.17;;;;;;;;;;5004971;28;20030;-50
2023/03/26 11:39:07;;;;;;;1.20;0.65;;;;;;;;;;5004913;28;20092;-48
2023/03/26 11:41:32;;;;;;;1.60;0.70;;;;;;;;;;5004573;28;20041;-50
2023/03/26 11:44:01;;;;;;;2.33;1.10;;;;;;;;;;5004793;28;20071;-50
2023/03/26 11:46:27;;;;;;;2.05;0.80;;;;;;;;;;5005101;28;20037;-52
2023/03/26 11:48:56;;;;;;;6.07;0.82;;;;;;;;;;5005002;28;20022;-50
2023/03/26 11:51:35;;;;;;;4.45;1.48;;;;;;;;;;5004758;28;20030;-50
2023/03/26 11:54:01;;;;;;;0.52;0.47;;;;;;;;;;5003808;28;20029;-52
2023/03/26 11:56:46;;;;;;;1.65;0.50;;;;;;;;;;5006825;28;20068;-53
2023/03/26 11:59:14;;;;;;;1.60;0.77;;;;;;;;;;5008501;28;20451;-48
2023/03/26 12:01:42;;;;;;;4.07;1.48;;;;;;;;;;5008278;28;20037;-51
2023/03/26 12:04:13;;;;;;;2.58;0.80;;;;;;;;;;5008134;28;20418;-51
2023/03/26 12:06:38;;;;;;;2.83;1.13;;;;;;;;;;5007938;28;20472;-48
2023/03/26 12:09:14;;;;;;;3.03;1.10;;;;;;;;;;5008329;28;20157;-50
2023/03/26 12:11:40;;;;;;;1.67;0.70;;;;;;;;;;5008147;28;20439;-51
2023/03/26 12:14:05;;;;;;;3.33;0.70;;;;;;;;;;5008385;28;20519;-47
2023/03/26 12:16:31;;;;;;;3.30;1.13;;;;;;;;;;5008211;28;20243;-52
2023/03/26 12:19:01;;;;;;;1.50;0.70;;;;;;;;;;5007587;28;20033;-53
2023/03/26 12:21:27;;;;;;;3.05;0.80;;;;;;;;;;5007297;28;20483;-49
2023/03/26 12:24:03;;;;;;;3.75;0.70;;;;;;;;;;5008135;28;20022;-50
2023/03/26 12:26:35;;;;;;;10.00;0.93;;;;;;;;;;5007918;28;20022;-51
2023/03/26 12:29:06;;;;;;;0.82;0.50;;;;;;;;;;5008095;28;20025;-50
2023/03/26 12:31:40;;;;;;;1.25;0.70;;;;;;;;;;5007787;28;20042;-50
2023/03/26 12:34:12;;;;;;;1.55;0.85;;;;;;;;;;5008257;28;20050;-49
2023/03/26 12:36:37;;;;;;;3.03;0.98;;;;;;;;;;5008074;28;20072;-51
2023/03/26 12:39:22;;;;;;;1.35;0.68;;;;;;;;;;5007535;28;20489;-49
2023/03/26 12:41:54;;;;;;;0.90;0.65;;;;;;;;;;5007406;28;20038;-48
2023/03/26 12:44:28;;;;;;;0.75;0.43;;;;;;;;;;5007158;28;20128;-52
2023/03/26 12:47:07;;;;;;;1.52;0.70;;;;;;;;;;5007725;28;20140;-48
2023/03/26 12:49:33;;;;;;;2.00;0.85;;;;;;;;;;5007688;28;20037;-50
2023/03/26 12:52:22;;;;;;;2.08;0.52;;;;;;;;;;5007674;28;20044;-49
2023/03/26 12:55:16;;;;;;;4.05;0.93;;;;;;;;;;5004459;28;20029;-49
2023/03/26 12:58:05;;;;;;;2.80;1.02;;;;;;;;;;4946360;29;20035;-55
2023/03/26 13:00:48;;;;;;;10.18;1.98;;;;;;;;;;4889057;29;20089;-53
2023/03/26 13:03:14;;;;;;;2.80;1.05;;;;;;;;;;4888997;29;20574;-51
2023/03/26 13:05:54;;;;;;;3.03;0.65;;;;;;;;;;4889036;29;20036;-54
2023/03/26 13:08:22;;;;;;;1.30;0.60;;;;;;;;;;4888059;29;20040;-51
2023/03/26 13:11:10;;;;;;;2.05;0.68;;;;;;;;;;4889446;29;20035;-53
2023/03/26 13:13:44;;;;;;;3.05;0.77;;;;;;;;;;4889105;29;20120;-54
2023/03/26 13:16:22;;;;;;;1.70;0.68;;;;;;;;;;4889192;29;20040;-51
2023/03/26 13:19:07;;;;;;;2.85;0.85;;;;;;;;;;4889036;29;20032;-54
2023/03/26 13:21:33;;;;;;;2.33;1.00;;;;;;;;;;4888616;29;20037;-53
2023/03/26 13:23:58;;;;;;;3.10;1.02;;;;;;;;;;4889047;29;20036;-54
2023/03/26 13:26:23;;;;;;;3.13;0.82;;;;;;;;;;4889172;29;20498;-51
2023/03/26 13:29:07;;;;;;;1.10;0.60;;;;;;;;;;4888882;29;20375;-51
2023/03/26 13:31:35;;;;;;;3.22;1.00;;;;;;;;;;4881992;29;20045;-52
2023/03/26 13:34:19;;;;;;;1.73;0.82;;;;;;;;;;4904236;29;20569;-53
2023/03/26 13:36:50;;;;;;;1.80;0.80;;;;;;;;;;4955779;28;20069;-54
2023/03/26 13:39:34;;;;;;;3.53;0.90;;;;;;;;;;5006177;28;20075;-51
2023/03/26 13:42:03;;;;;;;1.27;0.60;;;;;;;;;;5006511;28;20113;-54
2023/03/26 13:44:34;;;;;;;1.93;0.63;;;;;;;;;;5006254;28;20112;-54
2023/03/26 13:47:04;;;;;;;1.98;0.85;;;;;;;;;;5006250;28;20072;-53
2023/03/26 13:49:36;;;;;;;2.25;0.77;;;;;;;;;;5004994;28;20044;-55
2023/03/26 13:52:06;;;;;;;0.88;0.45;;;;;;;;;;5006570;28;20475;-50
2023/03/26 13:54:40;;;;;;;3.42;0.63;;;;;;;;;;5006227;28;20026;-55
2023/03/26 13:57:08;;;;;;;2.25;0.85;;;;;;;;;;5006164;28;20021;-56
2023/03/26 13:59:34;;;;;;;3.35;0.88;;;;;;;;;;5006256;28;20080;-52
2023/03/26 14:02:20;;;;;;;1.70;0.65;;;;;;;;;;5006208;28;20030;-51
2023/03/26 14:04:48;;;;;;;1.75;0.75;;;;;;;;;;5005545;28;20041;-50
2023/03/26 14:07:40;;;;;;;5.05;0.98;;;;;;;;;;5004636;28;20092;-54
2023/03/26 14:10:11;;;;;;;1.73;0.82;;;;;;;;;;5003368;28;20041;-54
2023/03/26 14:12:47;;;;;;;2.53;0.93;;;;;;;;;;4986517;28;20034;-51
2023/03/26 14:15:16;;;;;;;1.55;0.75;;;;;;;;;;5003366;28;20037;-53
2023/03/26 14:17:48;;;;;;;2.97;0.90;;;;;;;;;;4986607;28;20026;-54
2023/03/26 14:20:16;;;;;;;2.70;0.88;;;;;;;;;;5002667;28;20146;-52
2023/03/26 14:22:50;;;;;;;3.17;1.25;;;;;;;;;;5002806;28;20037;-51
2023/03/26 14:25:17;;;;;;;3.33;0.73;;;;;;;;;;5002822;28;20026;-54
2023/03/26 14:27:42;;;;;;;2.65;1.27;;;;;;;;;;5003140;28;20188;-53
2023/03/26 14:30:26;;;;;;;24.67;7.43;;;;;;;;;;5002812;28;20112;-52
2023/03/26 14:33:01;;;;;;;3.30;1.05;;;;;;;;;;5002677;28;20378;-53
2023/03/26 14:35:27;;;;;;;4.43;2.00;;;;;;;;;;5003037;28;20063;-53
2023/03/26 14:37:58;;;;;;;3.40;0.90;;;;;;;;;;5002723;28;20539;-54
2023/03/26 14:40:26;;;;;;;3.60;1.02;;;;;;;;;;5002887;28;20026;-53
2023/03/26 14:42:56;;;;;;;0.85;0.65;;;;;;;;;;5002843;28;20072;-52
2023/03/26 14:45:33;;;;;;;3.05;1.65;;;;;;;;;;5003072;28;20030;-55
2023/03/26 14:48:02;;;;;;;5.85;1.02;;;;;;;;;;5004840;28;20036;-53
2023/03/26 14:50:34;;;;;;;3.92;0.88;;;;;;;;;;5005357;28;20022;-53
2023/03/26 14:53:03;;;;;;;5.95;3.28;;;;;;;;;;5005594;28;20117;-50
2023/03/26 14:55:47;;;;;;;9.60;3.70;;;;;;;;;;5005395;28;20100;-54
2023/03/26 14:58:26;;;;;;;3.70;0.85;;;;;;;;;;5005319;28;20022;-53
2023/03/26 15:01:04;;;;;;;5.33;1.50;;;;;;;;;;5005300;28;20021;-55